TimeEDT,TemperatureF,Dew PointF,Humidity,Sea Level PressureIn,VisibilityMPH,Wind Direction,Wind SpeedMPH,Gust SpeedMPH,PrecipitationIn,Events,Conditions,WindDirDegrees,DateUTC
1:56 AM,39.0,21.0,49,29.76,10.0,NW,12.7,20.7,N/A,,Clear,310,2013-03-16 05:56:00
2:56 AM,37.9,19.9,48,29.77,10.0,WNW,15.0,19.6,N/A,,Clear,290,2013-03-16 06:56:00
3:56 AM,37.0,19.0,48,29.78,10.0,WNW,10.4,-,N/A,,Clear,300,2013-03-16 07:56:00
4:56 AM,35.1,19.0,52,29.80,10.0,NW,5.8,-,N/A,,Clear,310,2013-03-16 08:56:00
5:56 AM,33.1,21.0,61,29.82,10.0,Calm,Calm,-,N/A,,Scattered Clouds,0,2013-03-16 09:56:00
6:56 AM,32.0,23.0,69,29.84,10.0,NE,3.5,-,N/A,,Mostly Cloudy,50,2013-03-16 10:56:00
7:56 AM,33.1,21.9,64,29.83,10.0,NNE,3.5,-,N/A,,Mostly Cloudy,30,2013-03-16 11:56:00
8:56 AM,35.1,19.0,52,29.86,10.0,North,9.2,-,N/A,,Mostly Cloudy,10,2013-03-16 12:56:00
9:56 AM,36.0,19.0,50,29.84,10.0,North,10.4,-,N/A,,Overcast,10,2013-03-16 13:56:00
10:56 AM,37.0,19.9,50,29.84,10.0,NE,5.8,-,N/A,,Overcast,40,2013-03-16 14:56:00
11:56 AM,37.0,19.9,50,29.83,9.0,Calm,Calm,-,0.00,Snow,Light Snow,0,2013-03-16 15:56:00
12:56 PM,37.0,19.9,50,29.82,10.0,Calm,Calm,-,0.00,,Overcast,0,2013-03-16 16:56:00
1:56 PM,37.0,21.9,54,29.82,2.0,South,6.9,-,0.00,Snow,Light Snow,170,2013-03-16 17:56:00
2:12 PM,35.6,24.8,65,29.81,2.0,South,8.1,-,0.00,Snow,Light Snow,180,2013-03-16 18:12:00
2:40 PM,33.8,24.8,70,29.81,1.0,South,5.8,-,0.00,Snow,Light Snow,170,2013-03-16 18:40:00
2:50 PM,33.8,26.6,75,29.82,0.8,South,4.6,-,0.01,Snow,Light Snow,180,2013-03-16 18:50:00
2:56 PM,33.1,26.1,75,29.82,0.8,South,4.6,-,0.01,Snow,Light Snow,180,2013-03-16 18:56:00
3:25 PM,32.0,28.4,87,29.80,0.8,South,3.5,-,0.01,Snow,Light Snow,180,2013-03-16 19:25:00
3:56 PM,33.1,28.9,85,29.79,0.8,Calm,Calm,-,0.02,Snow,Light Snow,0,2013-03-16 19:56:00
4:17 PM,33.8,28.4,81,29.80,2.0,Calm,Calm,-,0.00,Snow,Light Snow,0,2013-03-16 20:17:00
4:56 PM,32.0,27.0,82,29.79,0.8,Calm,Calm,-,0.01,Snow,Light Snow,0,2013-03-16 20:56:00
5:18 PM,33.8,28.4,81,29.78,2.0,NNE,4.6,-,0.00,Snow,Light Snow,30,2013-03-16 21:18:00
5:48 PM,32.0,28.4,87,29.79,0.5,Calm,Calm,-,0.00,Fog-Snow,Snow,0,2013-03-16 21:48:00
5:56 PM,32.0,28.0,85,29.79,0.5,Calm,Calm,-,0.01,Fog-Snow,Snow,0,2013-03-16 21:56:00
6:12 PM,32.0,28.4,87,29.79,1.0,East,4.6,-,0.00,Snow,Light Snow,100,2013-03-16 22:12:00
6:56 PM,32.0,28.9,88,29.79,2.0,ENE,3.5,-,0.01,Snow,Light Snow,60,2013-03-16 22:56:00
7:56 PM,32.0,28.0,85,29.82,4.0,North,5.8,-,0.00,Snow,Light Snow,360,2013-03-16 23:56:00
8:56 PM,32.0,28.0,85,29.84,5.0,North,4.6,-,0.01,Snow,Light Snow,350,2013-03-17 00:56:00
9:56 PM,32.0,28.0,85,29.86,9.0,North,4.6,-,0.00,Snow,Light Snow,350,2013-03-17 01:56:00
10:56 PM,32.0,28.9,88,29.87,9.0,NNW,5.8,-,0.00,Snow,Light Snow,330,2013-03-17 02:56:00
11:56 PM,33.1,28.9,85,29.88,9.0,NW,4.6,-,0.00,,Overcast,320,2013-03-17 03:56:00